createdAt,value
2024-02-08T00:00:47.662Z,62.14
2024-02-08T00:03:36.549Z,62.32
2024-02-08T00:06:07.628Z,62.76
2024-02-08T00:08:36.538Z,62.65
2024-02-08T00:11:07.290Z,62.81
2024-02-08T00:13:36.539Z,62.22
2024-02-08T00:16:07.925Z,62.81
2024-02-08T00:18:37.488Z,62.36
2024-02-08T00:21:11.479Z,62.74
2024-02-08T00:24:01.217Z,62.64
2024-02-08T00:26:29.798Z,63.19
2024-02-08T00:29:01.664Z,62.93
2024-02-08T00:31:38.037Z,62.51
2024-02-08T00:34:30.457Z,62.02
2024-02-08T00:37:01.410Z,62.27
2024-02-08T00:39:32.638Z,62.27
2024-02-08T00:42:01.120Z,62.33
2024-02-08T00:44:52.754Z,63.03
2024-02-08T00:47:21.243Z,63.38
2024-02-08T00:49:49.956Z,62.93
2024-02-08T00:52:19.777Z,62.85
2024-02-08T00:54:51.387Z,63.15
2024-02-08T00:57:19.746Z,63.37
2024-02-08T00:59:48.215Z,62.90
2024-02-08T01:02:16.570Z,63.55
2024-02-08T01:04:50.563Z,64.01
2024-02-08T01:07:19.330Z,64.31
2024-02-08T01:09:47.672Z,64.45
2024-02-08T01:12:16.142Z,64.37
2024-02-08T01:14:44.509Z,64.48
2024-02-08T01:17:13.523Z,64.11
2024-02-08T01:19:42.046Z,64.77
2024-02-08T01:22:12.483Z,64.60
2024-02-08T01:24:41.954Z,64.82
2024-02-08T01:27:10.281Z,64.78
2024-02-08T01:29:38.408Z,64.93
2024-02-08T01:32:07.214Z,64.99
2024-02-08T01:34:35.684Z,64.82
2024-02-08T01:37:04.935Z,64.91
2024-02-08T01:39:35.663Z,65.00
2024-02-08T01:42:13.365Z,65.04
2024-02-08T01:44:47.952Z,65.43
2024-02-08T01:47:19.419Z,65.01
2024-02-08T01:50:10.549Z,65.63
2024-02-08T01:52:43.811Z,65.49
2024-02-08T01:55:19.231Z,65.25
2024-02-08T01:57:52.856Z,65.38
2024-02-08T02:00:24.393Z,65.37
2024-02-08T02:03:02.388Z,64.66
2024-02-08T02:05:56.533Z,64.61
2024-02-08T02:08:34.419Z,64.95
2024-02-08T02:11:20.641Z,65.09
2024-02-08T02:13:52.434Z,65.11
2024-02-08T02:16:24.535Z,65.34
2024-02-08T02:18:55.313Z,65.51
2024-02-08T02:21:24.335Z,64.93
2024-02-08T02:23:53.370Z,64.66
2024-02-08T02:26:23.431Z,64.79
2024-02-08T02:28:52.867Z,64.43
2024-02-08T02:31:25.279Z,64.84
2024-02-08T02:33:54.615Z,64.93
2024-02-08T02:36:23.761Z,65.50
2024-02-08T02:38:52.719Z,65.91
2024-02-08T02:41:26.356Z,65.78
2024-02-08T02:43:55.346Z,66.04
2024-02-08T02:46:24.107Z,65.92
2024-02-08T02:48:53.206Z,65.69
2024-02-08T02:51:27.729Z,65.96
2024-02-08T02:53:55.955Z,66.04
2024-02-08T02:56:24.280Z,65.83
2024-02-08T02:58:53.232Z,65.58
2024-02-08T03:01:23.048Z,65.31
2024-02-08T03:03:52.503Z,65.39
2024-02-08T03:06:21.023Z,65.20
2024-02-08T03:08:49.405Z,65.04
2024-02-08T03:11:17.670Z,65.48
2024-02-08T03:13:51.459Z,66.02
2024-02-08T03:16:27.607Z,65.77
2024-02-08T03:18:58.091Z,65.58
2024-02-08T03:21:26.540Z,66.04
2024-02-08T03:23:58.291Z,65.85
2024-02-08T03:26:27.341Z,66.03
2024-02-08T03:28:55.966Z,66.07
2024-02-08T03:31:27.448Z,66.34
2024-02-08T03:33:55.855Z,65.90
2024-02-08T03:36:25.239Z,65.76
2024-02-08T03:38:54.216Z,65.61
2024-02-08T03:41:22.829Z,65.65
2024-02-08T03:43:54.125Z,65.65
2024-02-08T03:46:22.470Z,66.15
2024-02-08T03:48:51.526Z,66.48
2024-02-08T03:51:20.534Z,66.11
2024-02-08T03:53:49.024Z,66.02
2024-02-08T03:56:17.858Z,66.13
2024-02-08T03:58:48.059Z,65.85
2024-02-08T04:01:16.690Z,66.05
2024-02-08T04:03:54.184Z,66.77
2024-02-08T04:06:35.162Z,66.73
2024-02-08T04:09:17.857Z,66.79
2024-02-08T04:12:05.322Z,66.64
2024-02-08T04:14:53.496Z,66.53
2024-02-08T04:17:35.787Z,66.47
2024-02-08T04:20:16.106Z,66.69
2024-02-08T04:22:56.222Z,66.61
2024-02-08T04:25:46.262Z,66.89
2024-02-08T04:29:35.048Z,67.92
2024-02-08T04:32:46.766Z,67.60
2024-02-08T04:36:16.808Z,67.88
2024-02-08T04:39:47.056Z,67.98
2024-02-08T04:42:47.171Z,68.66
2024-02-08T04:46:07.485Z,68.73
2024-02-08T04:49:08.129Z,68.41
2024-02-08T04:52:20.656Z,68.10
2024-02-08T04:55:25.257Z,67.50
2024-02-08T04:59:06.877Z,67.50
2024-02-08T05:02:01.081Z,67.21
2024-02-08T05:04:37.958Z,67.19
2024-02-08T05:07:27.882Z,67.73
2024-02-08T05:10:10.213Z,68.22
2024-02-08T05:13:09.007Z,68.28
2024-02-08T05:15:57.919Z,68.22
2024-02-08T05:18:29.944Z,68.30
2024-02-08T05:20:58.601Z,68.29
2024-02-08T05:23:27.002Z,68.66
2024-02-08T05:25:59.615Z,69.10
2024-02-08T05:28:31.162Z,69.23
2024-02-08T05:31:07.028Z,69.27
2024-02-08T05:33:53.764Z,69.47
2024-02-08T05:37:02.715Z,69.73
2024-02-08T05:39:49.424Z,69.84
2024-02-08T05:43:02.576Z,69.78
2024-02-08T05:45:34.181Z,69.55
2024-02-08T05:48:07.552Z,69.64
2024-02-08T05:50:45.578Z,69.41
2024-02-08T05:53:17.051Z,69.41
2024-02-08T05:55:49.232Z,69.38
2024-02-08T05:58:20.344Z,69.88
2024-02-08T06:01:02.789Z,69.79
2024-02-08T06:03:39.154Z,69.22
2024-02-08T06:06:17.352Z,69.32
2024-02-08T06:08:47.863Z,69.19
2024-02-08T06:11:19.515Z,69.38
2024-02-08T06:13:56.025Z,69.60
2024-02-08T06:16:34.532Z,69.77
2024-02-08T06:19:05.863Z,69.58
2024-02-08T06:21:41.958Z,69.51
2024-02-08T06:24:25.927Z,69.35
2024-02-08T06:26:57.363Z,69.11
2024-02-08T06:29:28.497Z,69.39
2024-02-08T06:32:13.594Z,69.28
2024-02-08T06:34:48.490Z,69.10
2024-02-08T06:37:28.037Z,68.33
2024-02-08T06:39:59.266Z,68.34
2024-02-08T06:42:47.168Z,67.98
2024-02-08T06:45:27.434Z,68.39
2024-02-08T06:47:58.773Z,68.35
2024-02-08T06:50:47.581Z,67.67
2024-02-08T06:53:27.737Z,67.61
2024-02-08T06:56:07.911Z,67.37
2024-02-08T06:58:53.983Z,66.77
2024-02-08T07:01:34.166Z,66.87
2024-02-08T07:04:14.368Z,66.62
2024-02-08T07:06:54.344Z,66.27
2024-02-08T07:09:34.476Z,65.62
2024-02-08T07:12:14.375Z,65.64
2024-02-08T07:14:54.504Z,65.42
2024-02-08T07:17:34.780Z,65.72
2024-02-08T07:20:14.982Z,65.67
2024-02-08T07:22:55.134Z,64.83
2024-02-08T07:25:35.409Z,64.31
2024-02-08T07:28:15.535Z,64.55
2024-02-08T07:30:58.003Z,64.66
2024-02-08T07:33:45.978Z,64.53
2024-02-08T07:36:26.248Z,64.16
2024-02-08T07:39:16.418Z,63.69
2024-02-08T07:41:55.178Z,62.29
2024-02-08T07:44:24.958Z,61.82
2024-02-08T07:46:56.381Z,61.39
2024-02-08T07:49:42.795Z,61.27
2024-02-08T07:52:20.175Z,60.56
2024-02-08T07:54:57.846Z,60.39
2024-02-08T07:57:27.940Z,59.75
2024-02-08T07:59:59.710Z,59.06
2024-02-08T08:02:30.687Z,58.45
2024-02-08T08:05:00.120Z,57.27
2024-02-08T08:07:28.625Z,57.29
2024-02-08T08:10:14.912Z,56.99
2024-02-08T08:12:48.371Z,56.73
2024-02-08T08:15:18.187Z,56.78
2024-02-08T08:18:01.815Z,56.60
2024-02-08T08:20:49.051Z,56.84
2024-02-08T08:23:27.432Z,56.58
2024-02-08T08:26:09.396Z,56.41
2024-02-08T08:28:42.272Z,56.22
2024-02-08T08:31:29.779Z,55.86
2024-02-08T08:34:02.394Z,55.19
2024-02-08T08:36:30.977Z,54.86
2024-02-08T08:39:09.936Z,55.23
2024-02-08T08:41:46.458Z,54.49
2024-02-08T08:45:06.343Z,53.94
2024-02-08T08:48:02.622Z,53.88
2024-02-08T08:51:41.319Z,53.51
2024-02-08T08:54:30.121Z,53.24
2024-02-08T08:57:26.646Z,52.78
2024-02-08T09:00:10.805Z,52.05
2024-02-08T09:03:06.011Z,52.06
2024-02-08T09:06:04.100Z,52.28
2024-02-08T09:09:00.014Z,52.12
2024-02-08T09:11:51.231Z,51.39
2024-02-08T09:14:54.182Z,50.53
2024-02-08T09:17:26.882Z,50.23
2024-02-08T09:20:00.570Z,49.50
2024-02-08T09:22:41.472Z,49.63
2024-02-08T09:25:27.374Z,48.70
2024-02-08T09:28:27.035Z,47.85
2024-02-08T09:30:59.641Z,47.58
2024-02-08T09:33:32.165Z,46.79
2024-02-08T09:36:01.084Z,47.00
2024-02-08T09:38:44.979Z,46.69
2024-02-08T09:41:39.990Z,46.37
2024-02-08T09:44:30.066Z,46.89
2024-02-08T09:47:09.192Z,46.72
2024-02-08T09:49:43.935Z,46.78
2024-02-08T09:52:55.700Z,47.43
2024-02-08T09:56:11.359Z,47.76
2024-02-08T09:59:05.219Z,48.11
2024-02-08T10:01:45.234Z,47.91
2024-02-08T10:04:17.749Z,46.79
2024-02-08T10:07:07.028Z,46.05
2024-02-08T10:09:47.929Z,45.31
2024-02-08T10:12:22.079Z,44.23
2024-02-08T10:15:02.082Z,44.06
2024-02-08T10:17:53.592Z,43.89
2024-02-08T10:20:33.495Z,43.89
2024-02-08T10:23:24.436Z,43.93
2024-02-08T10:26:13.141Z,43.67
2024-02-08T10:28:43.050Z,43.50
2024-02-08T10:31:23.664Z,43.75
2024-02-08T10:34:10.924Z,43.67
2024-02-08T10:36:46.914Z,43.80
2024-02-08T10:39:30.793Z,42.62
2024-02-08T10:42:02.902Z,41.45
2024-02-08T10:44:35.582Z,41.12
2024-02-08T10:47:08.413Z,39.55
2024-02-08T10:49:48.684Z,38.69
2024-02-08T10:52:22.879Z,38.28
2024-02-08T10:54:57.640Z,37.59
2024-02-08T10:57:46.977Z,36.75
2024-02-08T11:00:37.613Z,36.27
2024-02-08T11:03:10.288Z,35.65
2024-02-08T11:05:56.366Z,35.82
2024-02-08T11:08:26.438Z,34.76
2024-02-08T11:11:00.492Z,34.36
2024-02-08T11:13:38.957Z,34.69
2024-02-08T11:16:21.961Z,34.08
2024-02-08T11:18:54.549Z,33.99
2024-02-08T11:21:44.132Z,33.77
2024-02-08T11:24:37.510Z,33.19
2024-02-08T11:27:07.687Z,32.66
2024-02-08T11:29:46.813Z,33.93
2024-02-08T11:32:20.241Z,34.58
2024-02-08T11:34:56.335Z,34.57
2024-02-08T11:37:32.100Z,33.73
2024-02-08T11:40:03.082Z,32.82
2024-02-08T11:42:38.630Z,32.13
2024-02-08T11:45:10.671Z,32.26
2024-02-08T11:47:42.372Z,31.88
2024-02-08T11:50:22.315Z,31.88
2024-02-08T11:52:59.086Z,31.74
2024-02-08T11:55:30.341Z,31.20
2024-02-08T11:57:59.826Z,31.13
2024-02-08T12:00:31.641Z,30.99
2024-02-08T12:03:02.977Z,30.91
2024-02-08T12:05:35.520Z,30.69
2024-02-08T12:08:09.911Z,29.84
2024-02-08T12:10:40.057Z,29.35
2024-02-08T12:13:14.339Z,28.68
2024-02-08T12:15:57.509Z,28.10
2024-02-08T12:18:29.121Z,28.55
2024-02-08T12:21:03.378Z,28.63
2024-02-08T12:23:33.172Z,28.69
2024-02-08T12:26:05.608Z,28.48
2024-02-08T12:28:40.345Z,28.36
2024-02-08T12:31:20.738Z,28.25
2024-02-08T12:33:53.771Z,28.26
2024-02-08T12:36:25.638Z,28.43
2024-02-08T12:38:57.310Z,28.56
2024-02-08T12:41:25.870Z,28.68
2024-02-08T12:43:54.656Z,28.64
2024-02-08T12:46:23.820Z,28.39
2024-02-08T12:48:52.968Z,28.32
2024-02-08T12:51:24.676Z,28.40
2024-02-08T12:54:05.431Z,28.72
2024-02-08T12:56:35.737Z,27.82
2024-02-08T12:59:06.467Z,27.32
2024-02-08T13:01:45.651Z,27.63
2024-02-08T13:04:19.240Z,27.70
2024-02-08T13:06:51.917Z,27.91
2024-02-08T13:09:32.027Z,27.76
2024-02-08T13:12:16.214Z,27.73
2024-02-08T13:14:58.375Z,27.71
2024-02-08T13:17:27.933Z,27.22
2024-02-08T13:19:59.635Z,27.36
2024-02-08T13:22:35.604Z,27.56
2024-02-08T13:25:04.579Z,27.27
2024-02-08T13:27:35.618Z,27.09
2024-02-08T13:30:15.729Z,27.76
2024-02-08T13:32:52.711Z,27.77
2024-02-08T13:35:24.667Z,27.25
2024-02-08T13:37:55.850Z,26.90
2024-02-08T13:40:26.869Z,26.52
2024-02-08T13:43:00.693Z,27.23
2024-02-08T13:45:40.153Z,27.90
2024-02-08T13:48:14.617Z,27.87
2024-02-08T13:50:45.381Z,28.43
2024-02-08T13:53:16.565Z,29.36
2024-02-08T13:55:55.689Z,30.10
2024-02-08T13:58:27.561Z,29.95
2024-02-08T14:00:59.586Z,30.00
2024-02-08T14:03:31.838Z,30.21
2024-02-08T14:06:04.235Z,30.08
2024-02-08T14:08:48.220Z,30.07
2024-02-08T14:11:21.275Z,30.76
2024-02-08T14:14:00.317Z,31.29
2024-02-08T14:16:38.498Z,31.78
2024-02-08T14:19:12.841Z,32.30
2024-02-08T14:22:07.778Z,32.82
2024-02-08T14:24:39.965Z,33.08
2024-02-08T14:27:11.764Z,33.43
2024-02-08T14:29:45.898Z,33.69
2024-02-08T14:32:36.663Z,33.72
2024-02-08T14:35:17.434Z,33.67
2024-02-08T14:37:53.581Z,33.85
2024-02-08T14:40:30.343Z,34.17
2024-02-08T14:43:39.492Z,34.75
2024-02-08T14:46:38.267Z,34.56
2024-02-08T14:49:18.799Z,33.64
2024-02-08T14:51:52.448Z,32.94
2024-02-08T14:54:20.753Z,32.45
2024-02-08T14:57:06.184Z,32.41
2024-02-08T14:59:54.577Z,32.85
2024-02-08T15:02:30.978Z,33.04
2024-02-08T15:05:03.514Z,33.60
2024-02-08T15:07:57.700Z,33.81
2024-02-08T15:10:44.853Z,34.44
2024-02-08T15:13:19.830Z,34.74
2024-02-08T15:15:51.778Z,35.13
2024-02-08T15:18:31.585Z,35.62
2024-02-08T15:21:01.406Z,35.94
2024-02-08T15:23:33.845Z,36.35
2024-02-08T15:26:14.976Z,36.66
2024-02-08T15:28:57.207Z,36.99
2024-02-08T15:31:45.737Z,37.37
2024-02-08T15:34:39.469Z,37.66
2024-02-08T15:37:31.921Z,38.03
2024-02-08T15:40:23.689Z,38.14
2024-02-08T15:42:52.382Z,38.44
2024-02-08T15:45:42.377Z,38.89
2024-02-08T15:48:36.880Z,39.22
2024-02-08T15:51:29.798Z,39.57
2024-02-08T15:54:08.368Z,40.04
2024-02-08T15:56:44.183Z,40.28
2024-02-08T15:59:41.176Z,40.44
2024-02-08T16:02:53.156Z,41.18
2024-02-08T16:05:30.376Z,41.30
2024-02-08T16:08:19.160Z,41.68
2024-02-08T16:11:31.503Z,42.05
2024-02-08T16:14:07.009Z,42.45
2024-02-08T16:17:33.455Z,42.43
2024-02-08T16:20:09.921Z,43.03
2024-02-08T16:23:03.605Z,43.18
2024-02-08T16:25:46.094Z,43.61
2024-02-08T16:28:42.444Z,43.58
2024-02-08T16:31:26.013Z,43.65
2024-02-08T16:33:56.878Z,44.03
2024-02-08T16:36:46.164Z,44.24
2024-02-08T16:39:31.180Z,44.66
2024-02-08T16:42:01.783Z,44.73
2024-02-08T16:44:36.546Z,45.04
2024-02-08T16:47:25.814Z,45.29
2024-02-08T16:50:24.178Z,45.41
2024-02-08T16:53:05.267Z,45.60
2024-02-08T16:55:45.032Z,45.68
2024-02-08T16:58:30.259Z,45.91
2024-02-08T17:01:18.483Z,45.77
2024-02-08T17:04:10.217Z,46.22
2024-02-08T17:06:54.133Z,46.37
2024-02-08T17:09:26.345Z,46.25
2024-02-08T17:12:00.630Z,46.18
2024-02-08T17:14:39.657Z,46.12
2024-02-08T17:17:15.371Z,46.44
2024-02-08T17:19:59.524Z,46.49
2024-02-08T17:22:40.601Z,46.76
2024-02-08T17:25:26.185Z,47.10
2024-02-08T17:28:14.864Z,47.09
2024-02-08T17:30:54.014Z,46.94
2024-02-08T17:33:24.149Z,46.89
2024-02-08T17:35:56.911Z,47.09
2024-02-08T17:38:29.913Z,47.14
2024-02-08T17:41:01.337Z,47.31
2024-02-08T17:43:39.843Z,47.17
2024-02-08T17:46:10.430Z,47.10
2024-02-08T17:48:40.769Z,47.10
2024-02-08T17:51:12.417Z,47.05
2024-02-08T17:53:46.014Z,47.04
2024-02-08T17:56:18.741Z,46.82
2024-02-08T17:58:49.128Z,46.57
2024-02-08T18:01:18.277Z,46.59
2024-02-08T18:03:47.965Z,46.81
2024-02-08T18:06:18.698Z,46.38
2024-02-08T18:08:48.976Z,46.56
2024-02-08T18:11:19.003Z,46.50
2024-02-08T18:13:50.777Z,46.42
2024-02-08T18:16:20.322Z,46.51
2024-02-08T18:18:48.943Z,46.42
2024-02-08T18:21:35.151Z,46.42
2024-02-08T18:24:07.195Z,46.55
2024-02-08T18:26:36.519Z,47.11
2024-02-08T18:29:06.409Z,47.40
2024-02-08T18:31:36.322Z,47.78
2024-02-08T18:34:09.971Z,48.16
2024-02-08T18:36:46.712Z,48.09
2024-02-08T18:39:28.653Z,48.39
2024-02-08T18:41:59.670Z,48.68
2024-02-08T18:44:34.230Z,48.55
2024-02-08T18:47:10.105Z,49.22
2024-02-08T18:49:39.800Z,49.49
2024-02-08T18:52:09.217Z,49.49
2024-02-08T18:54:45.568Z,49.72
2024-02-08T18:57:13.783Z,49.72
2024-02-08T18:59:46.391Z,49.99
2024-02-08T19:02:17.976Z,50.56
2024-02-08T19:04:46.217Z,50.10
2024-02-08T19:07:14.697Z,50.25
2024-02-08T19:09:44.620Z,50.67
2024-02-08T19:12:13.815Z,50.74
2024-02-08T19:14:44.141Z,50.95
2024-02-08T19:17:14.840Z,51.30
2024-02-08T19:19:46.413Z,51.13
2024-02-08T19:22:17.679Z,50.63
2024-02-08T19:24:47.947Z,50.60
2024-02-08T19:27:16.346Z,51.00
2024-02-08T19:29:45.318Z,50.77
2024-02-08T19:32:20.573Z,50.64
2024-02-08T19:34:55.395Z,50.31
2024-02-08T19:37:26.117Z,50.53
2024-02-08T19:39:55.767Z,50.61
2024-02-08T19:42:24.305Z,50.38
2024-02-08T19:44:57.006Z,50.56
2024-02-08T19:47:56.130Z,50.40
2024-02-08T19:50:39.020Z,50.45
2024-02-08T19:53:11.525Z,50.54
2024-02-08T19:56:09.135Z,50.59
2024-02-08T19:58:48.440Z,50.41
2024-02-08T20:01:23.786Z,50.59
2024-02-08T20:03:53.695Z,50.82
2024-02-08T20:06:28.748Z,50.68
2024-02-08T20:09:01.168Z,51.05
2024-02-08T20:11:29.605Z,50.73
2024-02-08T20:14:07.897Z,51.20
2024-02-08T20:16:55.149Z,50.97
2024-02-08T20:19:31.993Z,51.22
2024-02-08T20:22:43.059Z,51.39
2024-02-08T20:25:41.844Z,51.25
2024-02-08T20:28:10.696Z,51.22
2024-02-08T20:30:39.890Z,51.36
2024-02-08T20:33:17.302Z,51.49
2024-02-08T20:35:56.893Z,51.34
2024-02-08T20:38:28.929Z,51.12
2024-02-08T20:41:26.092Z,50.93
2024-02-08T20:44:11.882Z,51.12
2024-02-08T20:47:13.020Z,51.12
2024-02-08T20:50:15.739Z,50.91
2024-02-08T20:53:34.121Z,51.05
2024-02-08T20:56:29.404Z,50.84
2024-02-08T20:59:18.498Z,50.93
2024-02-08T21:01:58.190Z,50.68
2024-02-08T21:05:09.280Z,50.88
2024-02-08T21:08:17.905Z,51.20
2024-02-08T21:11:39.609Z,51.85
2024-02-08T21:14:44.205Z,52.38
2024-02-08T21:17:36.114Z,52.89
2024-02-08T21:20:48.401Z,54.27
2024-02-08T21:23:56.563Z,55.09
2024-02-08T21:27:07.470Z,55.63
2024-02-08T21:30:47.736Z,56.30
2024-02-08T21:33:57.951Z,56.54
2024-02-08T21:37:07.032Z,56.61
2024-02-08T21:40:47.411Z,57.76
2024-02-08T21:44:10.219Z,58.02
2024-02-08T21:47:30.568Z,58.74
2024-02-08T21:51:14.307Z,58.82
2024-02-08T21:54:59.925Z,59.18
2024-02-08T22:25:45.955Z,60.12
2024-02-08T22:29:01.376Z,60.20
2024-02-08T22:31:51.014Z,59.85
2024-02-08T22:34:20.685Z,60.25
2024-02-08T22:36:49.651Z,59.86
2024-02-08T22:39:18.160Z,60.49
2024-02-08T22:41:49.166Z,60.95
2024-02-08T22:44:18.692Z,60.72
2024-02-08T22:46:47.037Z,60.72
2024-02-08T22:49:15.921Z,60.61
2024-02-08T22:51:48.572Z,60.89
2024-02-08T22:54:18.355Z,60.87
2024-02-08T22:56:51.091Z,61.31
2024-02-08T22:59:21.207Z,60.80
2024-02-08T23:02:17.122Z,61.35
2024-02-08T23:05:19.745Z,61.18
2024-02-08T23:08:16.092Z,61.43
2024-02-08T23:11:44.333Z,62.00
2024-02-08T23:14:33.403Z,62.78
2024-02-08T23:17:26.105Z,62.35
2024-02-08T23:20:22.772Z,62.07
2024-02-08T23:23:13.780Z,61.73
2024-02-08T23:25:56.191Z,61.78
2024-02-08T23:29:10.387Z,61.60
2024-02-08T23:32:41.917Z,61.34
2024-02-08T23:35:40.658Z,61.69
2024-02-08T23:39:13.074Z,61.70
2024-02-08T23:42:50.860Z,61.78
2024-02-08T23:46:03.116Z,62.13
2024-02-08T23:49:12.246Z,62.00
2024-02-08T23:52:20.852Z,61.97
2024-02-08T23:55:33.211Z,61.40
2024-02-08T23:58:54.247Z,62.57
